sensor_id;sensor_type;location;lat;lon;timestamp;pressure;altitude;pressure_sealevel;temperature;humidity
31483;BME280;18103;52.246;8.052;2023-04-20T00:00:41;100901.56;;;8.54;53.14
31483;BME280;18103;52.246;8.052;2023-04-20T00:03:07;100896.66;;;8.48;52.84
31483;BME280;18103;52.246;8.052;2023-04-20T00:05:39;100880.81;;;8.49;53.46
31483;BME280;18103;52.246;8.052;2023-04-20T00:08:04;100880.41;;;8.55;53.51
31483;BME280;18103;52.246;8.052;2023-04-20T00:10:30;100872.06;;;8.49;53.77
31483;BME280;18103;52.246;8.052;2023-04-20T00:12:55;100870.19;;;8.51;53.81
31483;BME280;18103;52.246;8.052;2023-04-20T00:15:25;100864.34;;;8.60;53.36
31483;BME280;18103;52.246;8.052;2023-04-20T00:17:51;100869.91;;;8.55;53.39
31483;BME280;18103;52.246;8.052;2023-04-20T00:20:16;100871.78;;;8.53;53.87
31483;BME280;18103;52.246;8.052;2023-04-20T00:22:42;100860.03;;;8.45;53.94
31483;BME280;18103;52.246;8.052;2023-04-20T00:25:08;100854.56;;;8.48;54.07
31483;BME280;18103;52.246;8.052;2023-04-20T00:27:33;100852.03;;;8.46;54.11
31483;BME280;18103;52.246;8.052;2023-04-20T00:29:59;100841.41;;;8.62;53.72
31483;BME280;18103;52.246;8.052;2023-04-20T00:32:27;100845.53;;;8.52;54.26
31483;BME280;18103;52.246;8.052;2023-04-20T00:34:54;100832.84;;;8.59;54.49
31483;BME280;18103;52.246;8.052;2023-04-20T00:37:19;100834.28;;;8.50;54.49
31483;BME280;18103;52.246;8.052;2023-04-20T00:39:50;100832.22;;;8.55;54.81
31483;BME280;18103;52.246;8.052;2023-04-20T00:42:15;100828.06;;;8.65;54.17
31483;BME280;18103;52.246;8.052;2023-04-20T00:44:40;100832.19;;;8.69;53.72
31483;BME280;18103;52.246;8.052;2023-04-20T00:47:06;100828.81;;;8.67;54.16
31483;BME280;18103;52.246;8.052;2023-04-20T00:49:33;100834.47;;;8.61;54.52
31483;BME280;18103;52.246;8.052;2023-04-20T00:52:01;100828.38;;;8.61;54.86
31483;BME280;18103;52.246;8.052;2023-04-20T00:54:28;100829.75;;;8.52;55.35
31483;BME280;18103;52.246;8.052;2023-04-20T00:56:57;100819.16;;;8.53;54.88
31483;BME280;18103;52.246;8.052;2023-04-20T00:59:24;100826.66;;;8.60;55.06
31483;BME280;18103;52.246;8.052;2023-04-20T01:01:51;100824.88;;;8.60;54.79
31483;BME280;18103;52.246;8.052;2023-04-20T01:04:17;100812.41;;;8.49;55.25
31483;BME280;18103;52.246;8.052;2023-04-20T01:06:42;100815.03;;;8.49;55.29
31483;BME280;18103;52.246;8.052;2023-04-20T01:09:10;100815.88;;;8.50;55.16
31483;BME280;18103;52.246;8.052;2023-04-20T01:11:37;100813.13;;;8.51;54.86
31483;BME280;18103;52.246;8.052;2023-04-20T01:14:04;100808.91;;;8.63;54.86
31483;BME280;18103;52.246;8.052;2023-04-20T01:16:32;100807.94;;;8.64;54.89
31483;BME280;18103;52.246;8.052;2023-04-20T01:19:01;100797.16;;;8.40;56.05
31483;BME280;18103;52.246;8.052;2023-04-20T01:21:26;100794.97;;;8.32;56.95
31483;BME280;18103;52.246;8.052;2023-04-20T01:23:52;100797.88;;;8.42;56.90
31483;BME280;18103;52.246;8.052;2023-04-20T01:26:18;100805.34;;;8.35;57.35
31483;BME280;18103;52.246;8.052;2023-04-20T01:28:45;100795.09;;;8.16;58.57
31483;BME280;18103;52.246;8.052;2023-04-20T01:31:11;100797.06;;;8.27;58.65
31483;BME280;18103;52.246;8.052;2023-04-20T01:33:40;100793.59;;;8.12;59.31
31483;BME280;18103;52.246;8.052;2023-04-20T01:36:06;100792.56;;;8.15;59.37
31483;BME280;18103;52.246;8.052;2023-04-20T01:38:35;100786.63;;;8.11;60.20
31483;BME280;18103;52.246;8.052;2023-04-20T01:41:05;100784.09;;;8.10;60.20
31483;BME280;18103;52.246;8.052;2023-04-20T01:43:32;100768.88;;;8.15;60.05
31483;BME280;18103;52.246;8.052;2023-04-20T01:45:58;100773.56;;;8.10;60.80
31483;BME280;18103;52.246;8.052;2023-04-20T01:48:24;100772.56;;;8.12;60.79
31483;BME280;18103;52.246;8.052;2023-04-20T01:50:53;100778.84;;;8.24;60.02
31483;BME280;18103;52.246;8.052;2023-04-20T01:53:19;100773.22;;;8.16;60.46
31483;BME280;18103;52.246;8.052;2023-04-20T01:55:46;100767.38;;;8.11;60.75
31483;BME280;18103;52.246;8.052;2023-04-20T01:58:11;100777.44;;;7.90;62.13
31483;BME280;18103;52.246;8.052;2023-04-20T02:00:37;100770.31;;;8.06;60.63
31483;BME280;18103;52.246;8.052;2023-04-20T02:03:02;100767.41;;;7.96;61.46
31483;BME280;18103;52.246;8.052;2023-04-20T02:05:28;100773.97;;;8.03;61.20
31483;BME280;18103;52.246;8.052;2023-04-20T02:07:53;100770.03;;;8.11;60.80
31483;BME280;18103;52.246;8.052;2023-04-20T02:10:21;100778.44;;;7.87;61.75
31483;BME280;18103;52.246;8.052;2023-04-20T02:12:48;100771.16;;;7.92;61.74
31483;BME280;18103;52.246;8.052;2023-04-20T02:15:14;100775.63;;;7.90;62.21
31483;BME280;18103;52.246;8.052;2023-04-20T02:17:39;100760.22;;;8.13;61.10
31483;BME280;18103;52.246;8.052;2023-04-20T02:20:09;100767.50;;;7.95;62.46
31483;BME280;18103;52.246;8.052;2023-04-20T02:22:35;100747.47;;;7.78;63.09
31483;BME280;18103;52.246;8.052;2023-04-20T02:25:04;100759.03;;;7.90;62.47
31483;BME280;18103;52.246;8.052;2023-04-20T02:27:31;100766.63;;;7.80;63.15
31483;BME280;18103;52.246;8.052;2023-04-20T02:29:56;100768.31;;;7.81;63.77
31483;BME280;18103;52.246;8.052;2023-04-20T02:32:21;100761.91;;;7.70;64.21
31483;BME280;18103;52.246;8.052;2023-04-20T02:34:47;100755.06;;;7.68;64.55
31483;BME280;18103;52.246;8.052;2023-04-20T02:37:14;100753.94;;;7.72;64.76
31483;BME280;18103;52.246;8.052;2023-04-20T02:39:40;100760.06;;;7.87;64.10
31483;BME280;18103;52.246;8.052;2023-04-20T02:42:08;100752.38;;;7.98;64.26
31483;BME280;18103;52.246;8.052;2023-04-20T02:44:33;100763.59;;;7.71;65.48
31483;BME280;18103;52.246;8.052;2023-04-20T02:47:01;100759.22;;;7.86;64.61
31483;BME280;18103;52.246;8.052;2023-04-20T02:49:26;100748.41;;;7.77;65.46
31483;BME280;18103;52.246;8.052;2023-04-20T02:51:54;100753.38;;;7.67;65.66
31483;BME280;18103;52.246;8.052;2023-04-20T02:54:22;100738.84;;;7.76;65.28
31483;BME280;18103;52.246;8.052;2023-04-20T02:56:47;100738.25;;;7.70;65.74
31483;BME280;18103;52.246;8.052;2023-04-20T02:59:12;100741.38;;;7.63;65.77
31483;BME280;18103;52.246;8.052;2023-04-20T03:01:38;100749.44;;;7.60;65.54
31483;BME280;18103;52.246;8.052;2023-04-20T03:04:03;100748.22;;;7.80;65.00
31483;BME280;18103;52.246;8.052;2023-04-20T03:06:29;100740.78;;;7.72;65.11
31483;BME280;18103;52.246;8.052;2023-04-20T03:08:54;100732.81;;;7.74;65.36
31483;BME280;18103;52.246;8.052;2023-04-20T03:11:20;100732.63;;;7.62;65.83
31483;BME280;18103;52.246;8.052;2023-04-20T03:13:48;100735.81;;;7.67;65.48
31483;BME280;18103;52.246;8.052;2023-04-20T03:16:13;100729.16;;;7.62;66.29
31483;BME280;18103;52.246;8.052;2023-04-20T03:18:38;100733.19;;;7.67;65.61
31483;BME280;18103;52.246;8.052;2023-04-20T03:21:04;100728.47;;;7.58;66.09
31483;BME280;18103;52.246;8.052;2023-04-20T03:23:32;100726.09;;;7.69;64.98
31483;BME280;18103;52.246;8.052;2023-04-20T03:25:57;100726.81;;;7.71;65.55
31483;BME280;18103;52.246;8.052;2023-04-20T03:28:23;100721.28;;;7.76;65.30
31483;BME280;18103;52.246;8.052;2023-04-20T03:30:48;100719.97;;;7.69;65.62
31483;BME280;18103;52.246;8.052;2023-04-20T03:33:16;100714.06;;;7.65;65.26
31483;BME280;18103;52.246;8.052;2023-04-20T03:35:41;100706.34;;;7.62;65.69
31483;BME280;18103;52.246;8.052;2023-04-20T03:38:07;100696.59;;;7.64;65.70
31483;BME280;18103;52.246;8.052;2023-04-20T03:40:35;100702.06;;;7.61;65.94
31483;BME280;18103;52.246;8.052;2023-04-20T03:43:00;100699.88;;;7.68;65.97
31483;BME280;18103;52.246;8.052;2023-04-20T03:45:30;100689.38;;;7.68;65.98
31483;BME280;18103;52.246;8.052;2023-04-20T03:47:55;100697.34;;;7.66;66.27
31483;BME280;18103;52.246;8.052;2023-04-20T03:50:21;100694.03;;;7.48;66.96
31483;BME280;18103;52.246;8.052;2023-04-20T03:52:46;100703.09;;;7.59;66.93
31483;BME280;18103;52.246;8.052;2023-04-20T03:55:12;100693.31;;;7.46;66.73
31483;BME280;18103;52.246;8.052;2023-04-20T03:57:40;100695.75;;;7.49;66.72
31483;BME280;18103;52.246;8.052;2023-04-20T04:00:06;100693.97;;;7.50;66.57
31483;BME280;18103;52.246;8.052;2023-04-20T04:02:36;100699.38;;;7.47;67.17
31483;BME280;18103;52.246;8.052;2023-04-20T04:05:01;100700.91;;;7.51;66.60
31483;BME280;18103;52.246;8.052;2023-04-20T04:07:33;100697.34;;;7.38;67.81
31483;BME280;18103;52.246;8.052;2023-04-20T04:09:59;100692.63;;;7.43;67.51
31483;BME280;18103;52.246;8.052;2023-04-20T04:12:25;100685.31;;;7.48;67.30
31483;BME280;18103;52.246;8.052;2023-04-20T04:14:50;100699.13;;;7.51;67.25
31483;BME280;18103;52.246;8.052;2023-04-20T04:17:15;100698.34;;;7.35;68.12
31483;BME280;18103;52.246;8.052;2023-04-20T04:19:41;100702.22;;;7.44;67.19
31483;BME280;18103;52.246;8.052;2023-04-20T04:22:07;100711.16;;;7.56;67.35
31483;BME280;18103;52.246;8.052;2023-04-20T04:24:35;100710.47;;;7.66;66.72
31483;BME280;18103;52.246;8.052;2023-04-20T04:27:05;100715.72;;;7.52;67.28
31483;BME280;18103;52.246;8.052;2023-04-20T04:29:31;100727.78;;;7.26;68.79
31483;BME280;18103;52.246;8.052;2023-04-20T04:32:00;100714.28;;;7.32;68.34
31483;BME280;18103;52.246;8.052;2023-04-20T04:34:28;100727.97;;;7.37;67.57
31483;BME280;18103;52.246;8.052;2023-04-20T04:36:59;100723.78;;;7.49;68.21
31483;BME280;18103;52.246;8.052;2023-04-20T04:39:26;100716.75;;;7.49;67.80
31483;BME280;18103;52.246;8.052;2023-04-20T04:41:54;100713.00;;;7.39;68.07
31483;BME280;18103;52.246;8.052;2023-04-20T04:44:21;100714.41;;;7.30;68.46
31483;BME280;18103;52.246;8.052;2023-04-20T04:46:52;100706.72;;;7.42;68.39
31483;BME280;18103;52.246;8.052;2023-04-20T04:49:21;100697.53;;;7.49;67.90
31483;BME280;18103;52.246;8.052;2023-04-20T04:51:48;100700.31;;;7.31;68.35
31483;BME280;18103;52.246;8.052;2023-04-20T04:54:15;100700.97;;;7.35;68.25
31483;BME280;18103;52.246;8.052;2023-04-20T04:56:41;100693.19;;;7.33;69.04
31483;BME280;18103;52.246;8.052;2023-04-20T04:59:06;100690.09;;;7.41;68.67
31483;BME280;18103;52.246;8.052;2023-04-20T05:01:32;100696.84;;;7.45;68.82
31483;BME280;18103;52.246;8.052;2023-04-20T05:03:59;100689.47;;;7.52;68.63
31483;BME280;18103;52.246;8.052;2023-04-20T05:06:25;100708.13;;;7.47;68.67
31483;BME280;18103;52.246;8.052;2023-04-20T05:08:50;100704.66;;;7.47;68.91
31483;BME280;18103;52.246;8.052;2023-04-20T05:11:18;100708.19;;;7.31;69.62
31483;BME280;18103;52.246;8.052;2023-04-20T05:13:46;100703.41;;;7.38;69.52
31483;BME280;18103;52.246;8.052;2023-04-20T05:16:12;100720.19;;;7.35;69.89
31483;BME280;18103;52.246;8.052;2023-04-20T05:18:38;100715.81;;;7.36;69.74
31483;BME280;18103;52.246;8.052;2023-04-20T05:21:06;100716.84;;;7.33;70.04
31483;BME280;18103;52.246;8.052;2023-04-20T05:23:33;100716.16;;;7.30;70.10
31483;BME280;18103;52.246;8.052;2023-04-20T05:25:58;100722.75;;;7.07;71.56
31483;BME280;18103;52.246;8.052;2023-04-20T05:28:24;100722.59;;;7.24;70.63
31483;BME280;18103;52.246;8.052;2023-04-20T05:30:51;100724.81;;;7.32;70.89
31483;BME280;18103;52.246;8.052;2023-04-20T05:33:23;100731.88;;;7.15;70.92
31483;BME280;18103;52.246;8.052;2023-04-20T05:35:49;100728.13;;;7.19;70.50
31483;BME280;18103;52.246;8.052;2023-04-20T05:38:15;100725.22;;;7.24;70.69
31483;BME280;18103;52.246;8.052;2023-04-20T05:40:41;100723.47;;;7.25;71.06
31483;BME280;18103;52.246;8.052;2023-04-20T05:43:06;100724.81;;;7.32;70.79
31483;BME280;18103;52.246;8.052;2023-04-20T05:45:34;100732.19;;;7.25;71.39
31483;BME280;18103;52.246;8.052;2023-04-20T05:47:59;100732.28;;;7.24;71.56
31483;BME280;18103;52.246;8.052;2023-04-20T05:50:25;100726.44;;;7.18;71.71
31483;BME280;18103;52.246;8.052;2023-04-20T05:52:51;100733.88;;;7.26;71.27
31483;BME280;18103;52.246;8.052;2023-04-20T05:55:17;100731.47;;;7.38;71.13
31483;BME280;18103;52.246;8.052;2023-04-20T05:57:45;100724.13;;;7.28;72.19
31483;BME280;18103;52.246;8.052;2023-04-20T06:00:13;100735.59;;;7.42;71.14
31483;BME280;18103;52.246;8.052;2023-04-20T06:02:39;100730.91;;;7.47;70.54
31483;BME280;18103;52.246;8.052;2023-04-20T06:05:05;100732.59;;;7.48;70.67
31483;BME280;18103;52.246;8.052;2023-04-20T06:07:31;100731.94;;;7.44;70.97
31483;BME280;18103;52.246;8.052;2023-04-20T06:09:56;100731.00;;;7.45;71.27
31483;BME280;18103;52.246;8.052;2023-04-20T06:12:24;100725.09;;;7.42;71.14
31483;BME280;18103;52.246;8.052;2023-04-20T06:14:50;100729.97;;;7.48;71.31
31483;BME280;18103;52.246;8.052;2023-04-20T06:17:18;100725.00;;;7.43;71.78
31483;BME280;18103;52.246;8.052;2023-04-20T06:19:46;100734.41;;;7.47;71.32
31483;BME280;18103;52.246;8.052;2023-04-20T06:22:12;100732.50;;;7.35;72.01
31483;BME280;18103;52.246;8.052;2023-04-20T06:24:40;100731.59;;;7.50;71.03
31483;BME280;18103;52.246;8.052;2023-04-20T06:27:08;100727.34;;;7.33;71.76
31483;BME280;18103;52.246;8.052;2023-04-20T06:29:36;100727.72;;;7.42;71.64
31483;BME280;18103;52.246;8.052;2023-04-20T06:32:02;100727.44;;;7.46;71.35
31483;BME280;18103;52.246;8.052;2023-04-20T06:34:28;100719.28;;;7.36;71.94
31483;BME280;18103;52.246;8.052;2023-04-20T06:36:53;100723.13;;;7.45;71.63
31483;BME280;18103;52.246;8.052;2023-04-20T06:39:19;100723.13;;;7.45;71.71
31483;BME280;18103;52.246;8.052;2023-04-20T06:41:44;100722.09;;;7.33;72.51
31483;BME280;18103;52.246;8.052;2023-04-20T06:44:12;100731.47;;;7.38;72.41
31483;BME280;18103;52.246;8.052;2023-04-20T06:46:40;100725.81;;;7.29;72.39
31483;BME280;18103;52.246;8.052;2023-04-20T06:49:05;100728.03;;;7.51;71.54
31483;BME280;18103;52.246;8.052;2023-04-20T06:51:33;100727.88;;;7.39;72.82
31483;BME280;18103;52.246;8.052;2023-04-20T06:53:58;100720.78;;;7.41;72.69
31483;BME280;18103;52.246;8.052;2023-04-20T06:56:24;100716.66;;;7.51;71.72
31483;BME280;18103;52.246;8.052;2023-04-20T06:58:49;100718.25;;;7.68;71.15
31483;BME280;18103;52.246;8.052;2023-04-20T07:01:17;100723.63;;;7.66;71.67
31483;BME280;18103;52.246;8.052;2023-04-20T07:03:45;100715.44;;;7.57;72.06
31483;BME280;18103;52.246;8.052;2023-04-20T07:06:10;100725.84;;;7.58;71.90
31483;BME280;18103;52.246;8.052;2023-04-20T07:08:42;100720.44;;;7.61;71.02
31483;BME280;18103;52.246;8.052;2023-04-20T07:11:07;100726.16;;;7.68;71.77
31483;BME280;18103;52.246;8.052;2023-04-20T07:13:35;100725.31;;;7.53;72.61
31483;BME280;18103;52.246;8.052;2023-04-20T07:16:01;100720.69;;;7.57;72.71
31483;BME280;18103;52.246;8.052;2023-04-20T07:18:26;100722.69;;;7.67;71.97
31483;BME280;18103;52.246;8.052;2023-04-20T07:20:52;100720.16;;;7.51;72.24
31483;BME280;18103;52.246;8.052;2023-04-20T07:23:17;100722.41;;;7.72;71.63
31483;BME280;18103;52.246;8.052;2023-04-20T07:25:43;100718.56;;;7.78;71.11
31483;BME280;18103;52.246;8.052;2023-04-20T07:28:08;100715.56;;;7.84;70.87
31483;BME280;18103;52.246;8.052;2023-04-20T07:30:33;100727.56;;;7.59;71.91
31483;BME280;18103;52.246;8.052;2023-04-20T07:32:59;100725.69;;;7.76;71.41
31483;BME280;18103;52.246;8.052;2023-04-20T07:35:27;100732.66;;;7.77;71.08
31483;BME280;18103;52.246;8.052;2023-04-20T07:37:53;100726.38;;;7.79;71.63
31483;BME280;18103;52.246;8.052;2023-04-20T07:40:21;100730.97;;;7.76;71.87
31483;BME280;18103;52.246;8.052;2023-04-20T07:42:46;100731.53;;;7.81;71.31
31483;BME280;18103;52.246;8.052;2023-04-20T07:45:14;100731.97;;;7.73;71.44
31483;BME280;18103;52.246;8.052;2023-04-20T07:47:39;100737.34;;;7.71;71.37
31483;BME280;18103;52.246;8.052;2023-04-20T07:50:06;100737.53;;;7.68;71.51
31483;BME280;18103;52.246;8.052;2023-04-20T07:52:32;100733.03;;;7.85;70.86
31483;BME280;18103;52.246;8.052;2023-04-20T07:54:57;100734.91;;;7.83;71.27
31483;BME280;18103;52.246;8.052;2023-04-20T07:57:24;100731.16;;;7.87;71.19
31483;BME280;18103;52.246;8.052;2023-04-20T07:59:53;100730.41;;;7.85;71.08
31483;BME280;18103;52.246;8.052;2023-04-20T08:02:18;100730.13;;;7.90;71.39
31483;BME280;18103;52.246;8.052;2023-04-20T08:04:44;100734.25;;;7.79;71.47
31483;BME280;18103;52.246;8.052;2023-04-20T08:07:13;100724.97;;;7.88;70.99
31483;BME280;18103;52.246;8.052;2023-04-20T08:09:40;100732.75;;;7.75;71.98
31483;BME280;18103;52.246;8.052;2023-04-20T08:12:06;100728.63;;;7.71;71.78
31483;BME280;18103;52.246;8.052;2023-04-20T08:14:34;100737.34;;;7.71;72.32
31483;BME280;18103;52.246;8.052;2023-04-20T08:17:02;100733.59;;;7.90;70.84
31483;BME280;18103;52.246;8.052;2023-04-20T08:19:29;100733.00;;;7.70;72.05
31483;BME280;18103;52.246;8.052;2023-04-20T08:21:57;100735.28;;;7.91;71.48
31483;BME280;18103;52.246;8.052;2023-04-20T08:24:22;100729.34;;;7.87;72.34
31483;BME280;18103;52.246;8.052;2023-04-20T08:26:50;100714.81;;;7.96;71.90
31483;BME280;18103;52.246;8.052;2023-04-20T08:29:18;100722.75;;;8.23;71.90
31483;BME280;18103;52.246;8.052;2023-04-20T08:31:43;100723.63;;;8.24;71.67
31483;BME280;18103;52.246;8.052;2023-04-20T08:34:10;100716.94;;;8.47;71.49
31483;BME280;18103;52.246;8.052;2023-04-20T08:36:36;100722.91;;;8.64;70.70
31483;BME280;18103;52.246;8.052;2023-04-20T08:39:10;100707.44;;;8.59;70.18
31483;BME280;18103;52.246;8.052;2023-04-20T08:41:36;100715.47;;;8.70;69.66
31483;BME280;18103;52.246;8.052;2023-04-20T08:44:05;100704.91;;;8.98;69.46
31483;BME280;18103;52.246;8.052;2023-04-20T08:46:32;100713.59;;;9.25;68.71
31483;BME280;18103;52.246;8.052;2023-04-20T08:48:59;100713.63;;;9.38;68.00
31483;BME280;18103;52.246;8.052;2023-04-20T08:51:28;100707.06;;;9.18;67.42
31483;BME280;18103;52.246;8.052;2023-04-20T08:53:54;100717.72;;;9.30;67.49
31483;BME280;18103;52.246;8.052;2023-04-20T08:56:34;100709.25;;;9.12;67.97
31483;BME280;18103;52.246;8.052;2023-04-20T08:59:01;100714.38;;;9.28;66.90
31483;BME280;18103;52.246;8.052;2023-04-20T09:01:28;100720.16;;;9.33;66.95
31483;BME280;18103;52.246;8.052;2023-04-20T09:03:53;100712.91;;;9.49;67.46
31483;BME280;18103;52.246;8.052;2023-04-20T09:06:19;100717.31;;;9.87;66.79
31483;BME280;18103;52.246;8.052;2023-04-20T09:08:45;100719.53;;;9.93;66.63
31483;BME280;18103;52.246;8.052;2023-04-20T09:14:16;100717.66;;;9.57;65.81
31483;BME280;18103;52.246;8.052;2023-04-20T09:16:53;100715.94;;;9.82;65.16
31483;BME280;18103;52.246;8.052;2023-04-20T09:19:24;100725.25;;;9.74;65.04
31483;BME280;18103;52.246;8.052;2023-04-20T09:21:51;100718.91;;;9.77;64.09
31483;BME280;18103;52.246;8.052;2023-04-20T09:24:22;100713.66;;;9.77;63.57
31483;BME280;18103;52.246;8.052;2023-04-20T09:26:50;100713.09;;;9.72;63.72
31483;BME280;18103;52.246;8.052;2023-04-20T09:29:20;100726.50;;;9.56;63.96
31483;BME280;18103;52.246;8.052;2023-04-20T09:31:47;100717.75;;;9.55;63.96
31483;BME280;18103;52.246;8.052;2023-04-20T09:34:13;100719.31;;;9.71;64.45
31483;BME280;18103;52.246;8.052;2023-04-20T09:36:50;100715.19;;;10.05;63.70
31483;BME280;18103;52.246;8.052;2023-04-20T09:39:17;100705.91;;;10.00;63.67
31483;BME280;18103;52.246;8.052;2023-04-20T09:41:46;100703.91;;;10.03;63.20
31483;BME280;18103;52.246;8.052;2023-04-20T09:44:16;100708.31;;;10.03;62.62
31483;BME280;18103;52.246;8.052;2023-04-20T09:46:43;100712.25;;;9.97;63.00
31483;BME280;18103;52.246;8.052;2023-04-20T09:49:13;100714.28;;;9.93;62.18
31483;BME280;18103;52.246;8.052;2023-04-20T09:51:41;100715.22;;;9.92;62.56
31483;BME280;18103;52.246;8.052;2023-04-20T09:54:12;100707.75;;;9.86;62.28
31483;BME280;18103;52.246;8.052;2023-04-20T09:56:38;100707.19;;;9.94;62.48
31483;BME280;18103;52.246;8.052;2023-04-20T09:59:04;100702.84;;;9.93;63.20
31483;BME280;18103;52.246;8.052;2023-04-20T10:01:31;100708.22;;;10.04;61.84
31483;BME280;18103;52.246;8.052;2023-04-20T10:03:59;100708.03;;;9.94;62.69
31483;BME280;18103;52.246;8.052;2023-04-20T10:06:30;100710.28;;;9.88;62.74
31483;BME280;18103;52.246;8.052;2023-04-20T10:08:56;100710.97;;;10.03;62.92
31483;BME280;18103;52.246;8.052;2023-04-20T10:13:56;100714.47;;;9.65;63.06
31483;BME280;18103;52.246;8.052;2023-04-20T10:16:22;100717.94;;;9.65;63.24
31483;BME280;18103;52.246;8.052;2023-04-20T10:19:01;100715.53;;;9.75;63.36
31483;BME280;18103;52.246;8.052;2023-04-20T10:21:28;100712.47;;;9.81;63.35
31483;BME280;18103;52.246;8.052;2023-04-20T10:23:55;100702.84;;;9.93;63.26
31483;BME280;18103;52.246;8.052;2023-04-20T10:26:21;100709.13;;;10.42;63.91
31483;BME280;18103;52.246;8.052;2023-04-20T10:28:50;100705.44;;;10.93;62.94
31483;BME280;18103;52.246;8.052;2023-04-20T10:31:15;100709.81;;;11.05;61.94
31483;BME280;18103;52.246;8.052;2023-04-20T10:33:54;100707.09;;;10.94;61.66
31483;BME280;18103;52.246;8.052;2023-04-20T10:36:30;100710.63;;;11.06;61.40
31483;BME280;18103;52.246;8.052;2023-04-20T10:38:57;100700.63;;;10.98;60.93
31483;BME280;18103;52.246;8.052;2023-04-20T10:41:23;100700.31;;;11.03;60.88
31483;BME280;18103;52.246;8.052;2023-04-20T10:43:49;100694.78;;;11.06;61.17
31483;BME280;18103;52.246;8.052;2023-04-20T10:46:19;100702.44;;;10.98;60.64
31483;BME280;18103;52.246;8.052;2023-04-20T10:49:03;100694.78;;;11.06;61.10
31483;BME280;18103;52.246;8.052;2023-04-20T10:51:29;100698.06;;;11.09;60.87
31483;BME280;18103;52.246;8.052;2023-04-20T10:54:01;100698.81;;;11.34;60.05
31483;BME280;18103;52.246;8.052;2023-04-20T10:56:53;100691.38;;;11.28;59.87
31483;BME280;18103;52.246;8.052;2023-04-20T10:59:23;100693.28;;;11.26;60.73
31483;BME280;18103;52.246;8.052;2023-04-20T11:01:51;100694.97;;;11.27;60.38
31483;BME280;18103;52.246;8.052;2023-04-20T11:04:17;100692.09;;;10.94;59.61
31483;BME280;18103;52.246;8.052;2023-04-20T11:06:44;100694.41;;;10.99;59.40
31483;BME280;18103;52.246;8.052;2023-04-20T11:12:00;100694.25;;;11.25;58.88
31483;BME280;18103;52.246;8.052;2023-04-20T11:14:28;100705.16;;;11.32;58.16
31483;BME280;18103;52.246;8.052;2023-04-20T11:16:54;100695.78;;;11.27;58.30
31483;BME280;18103;52.246;8.052;2023-04-20T11:19:48;100683.34;;;11.41;58.01
31483;BME280;18103;52.246;8.052;2023-04-20T11:22:22;100691.38;;;11.28;56.69
31483;BME280;18103;52.246;8.052;2023-04-20T11:24:48;100684.31;;;11.51;57.12
31483;BME280;18103;52.246;8.052;2023-04-20T11:27:19;100689.81;;;11.37;56.03
31483;BME280;18103;52.246;8.052;2023-04-20T11:29:55;100681.34;;;11.78;56.39
31483;BME280;18103;52.246;8.052;2023-04-20T11:32:25;100678.44;;;11.93;56.42
31483;BME280;18103;52.246;8.052;2023-04-20T11:35:03;100681.56;;;11.87;55.14
31483;BME280;18103;52.246;8.052;2023-04-20T11:37:32;100683.16;;;11.89;55.16
31483;BME280;18103;52.246;8.052;2023-04-20T11:40:04;100694.81;;;11.75;55.20
31483;BME280;18103;52.246;8.052;2023-04-20T11:42:34;100676.16;;;11.54;55.45
31483;BME280;18103;52.246;8.052;2023-04-20T11:45:02;100675.44;;;11.63;55.05
31483;BME280;18103;52.246;8.052;2023-04-20T11:47:27;100672.09;;;11.73;54.35
31483;BME280;18103;52.246;8.052;2023-04-20T11:49:55;100666.16;;;11.92;53.46
31483;BME280;18103;52.246;8.052;2023-04-20T11:52:22;100679.38;;;11.92;53.88
31483;BME280;18103;52.246;8.052;2023-04-20T11:54:51;100672.31;;;11.81;53.56
31483;BME280;18103;52.246;8.052;2023-04-20T11:57:16;100663.44;;;12.16;53.98
31483;BME280;18103;52.246;8.052;2023-04-20T11:59:44;100669.44;;;12.07;53.02
31483;BME280;18103;52.246;8.052;2023-04-20T12:02:15;100680.97;;;12.28;53.16
31483;BME280;18103;52.246;8.052;2023-04-20T12:04:40;100667.81;;;12.49;52.52
31483;BME280;18103;52.246;8.052;2023-04-20T12:07:06;100666.16;;;12.37;52.76
31483;BME280;18103;52.246;8.052;2023-04-20T12:09:32;100667.47;;;12.31;53.39
31483;BME280;18103;52.246;8.052;2023-04-20T12:12:06;100672.88;;;12.41;53.25
31483;BME280;18103;52.246;8.052;2023-04-20T12:14:34;100669.75;;;12.36;53.57
31483;BME280;18103;52.246;8.052;2023-04-20T12:17:03;100668.06;;;12.35;53.60
31483;BME280;18103;52.246;8.052;2023-04-20T12:19:31;100665.44;;;12.24;53.98
31483;BME280;18103;52.246;8.052;2023-04-20T12:21:56;100679.44;;;12.03;54.01
31483;BME280;18103;52.246;8.052;2023-04-20T12:24:24;100670.50;;;11.93;54.00
31483;BME280;18103;52.246;8.052;2023-04-20T12:26:50;100667.50;;;11.86;54.15
31483;BME280;18103;52.246;8.052;2023-04-20T12:29:15;100674.50;;;11.98;54.19
31483;BME280;18103;52.246;8.052;2023-04-20T12:31:43;100664.88;;;12.09;54.92
31483;BME280;18103;52.246;8.052;2023-04-20T12:34:09;100666.31;;;12.13;54.19
31483;BME280;18103;52.246;8.052;2023-04-20T12:36:34;100665.00;;;12.19;54.92
31483;BME280;18103;52.246;8.052;2023-04-20T12:39:00;100666.28;;;11.90;54.09
31483;BME280;18103;52.246;8.052;2023-04-20T12:41:28;100660.88;;;11.92;54.44
31483;BME280;18103;52.246;8.052;2023-04-20T12:43:56;100656.84;;;11.99;53.45
31483;BME280;18103;52.246;8.052;2023-04-20T12:46:21;100663.78;;;11.89;53.84
31483;BME280;18103;52.246;8.052;2023-04-20T12:48:47;100658.97;;;11.82;53.49
31483;BME280;18103;52.246;8.052;2023-04-20T12:51:13;100663.22;;;11.96;53.79
31483;BME280;18103;52.246;8.052;2023-04-20T12:53:38;100651.50;;;11.88;53.79
31483;BME280;18103;52.246;8.052;2023-04-20T12:56:04;100651.88;;;11.72;53.90
31483;BME280;18103;52.246;8.052;2023-04-20T12:58:32;100649.09;;;12.07;54.14
31483;BME280;18103;52.246;8.052;2023-04-20T13:00:57;100653.06;;;11.90;53.86
31483;BME280;18103;52.246;8.052;2023-04-20T13:03:23;100650.81;;;11.97;53.78
31483;BME280;18103;52.246;8.052;2023-04-20T13:05:48;100649.47;;;12.03;53.30